Time;durP1;ratioP1;P1;durP2;ratioP2;P2;SDS_P1;SDS_P2;PMS_P1;PMS_P2;Temp;Humidity;BMP_temperature;BMP_pressure;BME280_temperature;BME280_humidity;BME280_pressure;Samples;Min_cycle;Max_cycle;Signal;HPM_P1;HPM_P2
2024/03/26 00:02:09;;;;;;;17.85;4.72;;;;;;;5.30;100.00;99624.94;5043512;28;20033;-69
2024/03/26 00:04:34;;;;;;;17.88;4.80;;;;;;;5.26;100.00;99623.16;5042228;28;20491;-66
2024/03/26 00:07:00;;;;;;;17.60;5.15;;;;;;;5.24;100.00;99615.31;5042552;28;20053;-66
2024/03/26 00:09:25;;;;;;;19.58;4.90;;;;;;;5.22;100.00;99609.19;5043425;28;20517;-67
2024/03/26 00:11:50;;;;;;;17.40;4.90;;;;;;;5.21;100.00;99605.69;5041324;28;20431;-66
2024/03/26 00:14:16;;;;;;;19.27;4.95;;;;;;;5.20;100.00;99603.94;5044453;28;20033;-68
2024/03/26 00:16:41;;;;;;;18.88;5.10;;;;;;;5.17;100.00;99595.16;5039768;28;20034;-69
2024/03/26 00:19:07;;;;;;;18.80;5.00;;;;;;;5.12;100.00;99596.88;5043753;28;20040;-66
2024/03/26 00:21:32;;;;;;;18.52;4.78;;;;;;;5.12;100.00;99596.88;5042169;28;20056;-66
2024/03/26 00:23:57;;;;;;;18.00;4.90;;;;;;;5.07;100.00;99586.38;5041847;28;20033;-68
2024/03/26 00:26:23;;;;;;;17.60;5.28;;;;;;;4.99;100.00;99583.69;5043425;28;20048;-69
2024/03/26 00:28:48;;;;;;;18.23;4.85;;;;;;;4.93;100.00;99585.41;5040609;28;20132;-66
2024/03/26 00:31:13;;;;;;;18.58;5.13;;;;;;;4.88;100.00;99577.53;5044262;28;20033;-68
2024/03/26 00:33:39;;;;;;;16.58;4.80;;;;;;;4.83;100.00;99566.13;5041645;28;20122;-66
2024/03/26 00:36:04;;;;;;;18.70;4.82;;;;;;;4.77;100.00;99574.81;5042794;28;20047;-66
2024/03/26 00:38:29;;;;;;;19.63;5.20;;;;;;;4.70;100.00;99559.91;5042525;28;20025;-68
2024/03/26 00:40:55;;;;;;;18.50;4.97;;;;;;;4.66;100.00;99556.41;5041373;28;20388;-68
2024/03/26 00:43:20;;;;;;;17.73;4.85;;;;;;;4.62;100.00;99556.38;5043484;28;20044;-68
2024/03/26 00:45:45;;;;;;;18.77;5.15;;;;;;;4.58;100.00;99552.84;5040992;28;20084;-69
2024/03/26 00:48:11;;;;;;;18.65;5.22;;;;;;;4.57;100.00;99550.22;5043507;28;20522;-67
2024/03/26 00:50:36;;;;;;;19.27;4.90;;;;;;;4.54;100.00;99544.09;5041300;28;20029;-66
2024/03/26 00:53:02;;;;;;;19.17;5.13;;;;;;;4.48;100.00;99541.41;5042741;28;20040;-66
2024/03/26 00:55:27;;;;;;;18.45;4.88;;;;;;;4.46;100.00;99537.94;5042566;28;20033;-67
2024/03/26 00:57:53;;;;;;;19.60;5.13;;;;;;;4.42;100.00;99541.38;5043193;28;20021;-65
2024/03/26 01:00:19;;;;;;;18.25;4.93;;;;;;;4.39;100.00;99532.63;5039546;28;20040;-65
2024/03/26 01:02:44;;;;;;;18.77;5.00;;;;;;;4.33;100.00;99530.84;5043906;28;20029;-66
2024/03/26 01:05:10;;;;;;;17.85;4.85;;;;;;;4.32;100.00;99529.94;5043265;28;20038;-66
2024/03/26 01:07:35;;;;;;;19.38;5.07;;;;;;;4.27;100.00;99530.78;5046521;28;20032;-66
2024/03/26 01:10:01;;;;;;;19.98;4.90;;;;;;;4.25;100.00;99522.03;5045743;28;20112;-65
2024/03/26 01:12:26;;;;;;;19.10;5.10;;;;;;;4.24;100.00;99526.41;5045129;28;20385;-65
2024/03/26 01:14:51;;;;;;;18.85;5.18;;;;;;;4.23;100.00;99524.63;5047179;28;20032;-66
2024/03/26 01:17:16;;;;;;;17.98;5.32;;;;;;;4.18;100.00;99515.88;5042666;28;20030;-66
2024/03/26 01:19:42;;;;;;;20.00;5.13;;;;;;;4.15;100.00;99511.50;5047160;28;20021;-66
2024/03/26 01:22:08;;;;;;;19.08;5.30;;;;;;;4.16;100.00;99510.63;5044439;28;20378;-65
2024/03/26 01:24:33;;;;;;;19.75;5.07;;;;;;;4.12;100.00;99503.63;5045615;28;20033;-65
2024/03/26 01:26:58;;;;;;;19.20;5.05;;;;;;;4.08;100.00;99488.75;5045921;28;20083;-77
2024/03/26 01:29:24;;;;;;;19.13;5.40;;;;;;;4.06;100.00;99495.69;5045376;28;20388;-78
2024/03/26 01:31:49;;;;;;;18.65;5.00;;;;;;;4.08;100.00;99488.75;5047856;28;20025;-78
2024/03/26 01:34:18;;;;;;;18.45;4.93;;;;;;;4.07;100.00;99486.13;5044258;28;20488;-78
2024/03/26 01:36:44;;;;;;;17.98;5.03;;;;;;;4.10;100.00;99486.16;5046055;28;20476;-77
2024/03/26 01:39:09;;;;;;;19.10;4.93;;;;;;;4.09;100.00;99482.69;5043982;28;20030;-70
2024/03/26 01:41:35;;;;;;;18.98;4.80;;;;;;;4.07;100.00;99480.91;5046165;28;20037;-65
2024/03/26 01:44:00;;;;;;;18.48;5.00;;;;;;;4.06;100.00;99474.78;5045458;28;20498;-66
2024/03/26 01:46:26;;;;;;;17.70;4.50;;;;;;;4.09;100.00;99474.84;5044509;28;20550;-66
2024/03/26 01:48:53;;;;;;;19.25;5.03;;;;;;;4.11;100.00;99467.00;5046542;28;20063;-67
2024/03/26 01:51:19;;;;;;;17.02;4.80;;;;;;;4.12;100.00;99458.25;5043230;28;20048;-65
2024/03/26 01:53:45;;;;;;;19.67;4.82;;;;;;;4.15;100.00;99458.28;5039354;28;20546;-65
2024/03/26 01:56:12;;;;;;;18.27;4.90;;;;;;;4.10;100.00;99455.63;5046517;28;20021;-66
2024/03/26 01:58:38;;;;;;;18.30;4.70;;;;;;;4.12;100.00;99459.16;5043923;28;20025;-67
2024/03/26 02:01:05;;;;;;;17.80;5.15;;;;;;;4.12;100.00;99453.94;5045064;28;20550;-66
2024/03/26 02:03:31;;;;;;;18.33;4.65;;;;;;;4.14;100.00;99452.19;5045277;28;20378;-70
2024/03/26 02:05:56;;;;;;;19.75;4.82;;;;;;;4.15;100.00;99443.50;5043945;28;20056;-66
2024/03/26 02:08:22;;;;;;;16.55;4.50;;;;;;;4.19;100.00;99445.28;5046160;28;20033;-67
2024/03/26 02:10:48;;;;;;;18.67;4.90;;;;;;;4.18;100.00;99430.44;5042855;28;20488;-66
2024/03/26 02:13:13;;;;;;;16.60;4.60;;;;;;;4.15;100.00;99433.03;5046097;28;20082;-66
2024/03/26 02:15:39;;;;;;;17.55;4.45;;;;;;;4.13;100.00;99428.63;5043066;28;20037;-67
2024/03/26 02:18:05;;;;;;;18.13;4.78;;;;;;;4.07;100.00;99424.22;5044785;28;20033;-68
2024/03/26 02:20:31;;;;;;;18.17;4.60;;;;;;;4.06;100.00;99419.84;5044639;28;20040;-69
2024/03/26 02:22:56;;;;;;;17.27;4.70;;;;;;;4.01;100.00;99414.59;5043649;28;20502;-65
2024/03/26 02:25:22;;;;;;;18.17;4.60;;;;;;;3.95;100.00;99413.69;5045620;28;20115;-66
2024/03/26 02:27:48;;;;;;;17.77;4.70;;;;;;;3.91;100.00;99411.91;5042392;28;20042;-65
2024/03/26 02:30:14;;;;;;;16.73;4.40;;;;;;;3.88;100.00;99409.25;5046276;28;20029;-66
2024/03/26 02:32:39;;;;;;;18.35;4.72;;;;;;;3.81;100.00;99408.31;5043108;28;20091;-66
2024/03/26 02:35:05;;;;;;;18.58;4.70;;;;;;;3.76;100.00;99403.06;5044708;28;20033;-68
2024/03/26 02:37:30;;;;;;;17.80;4.50;;;;;;;3.74;100.00;99407.41;5026567;28;20033;-68
2024/03/26 02:39:55;;;;;;;19.08;4.97;;;;;;;3.67;100.00;99406.47;5043072;28;20030;-69
2024/03/26 02:42:21;;;;;;;19.50;4.72;;;;;;;3.62;100.00;99394.22;5045236;28;20040;-68
2024/03/26 02:44:46;;;;;;;20.02;5.00;;;;;;;3.58;100.00;99392.44;5042399;28;20037;-66
2024/03/26 02:47:12;;;;;;;18.70;4.63;;;;;;;3.51;100.00;99380.16;5045087;28;20039;-68
2024/03/26 02:49:37;;;;;;;19.73;4.85;;;;;;;3.44;100.00;99376.63;5043276;28;20032;-67
2024/03/26 02:52:02;;;;;;;16.48;4.63;;;;;;;3.36;100.00;99378.28;5043850;28;20061;-67
2024/03/26 02:54:28;;;;;;;17.55;4.68;;;;;;;3.27;100.00;99368.63;5044230;28;20112;-67
2024/03/26 02:56:53;;;;;;;18.38;5.15;;;;;;;3.22;100.00;99365.06;5042603;28;20061;-68
2024/03/26 02:59:18;;;;;;;17.90;4.80;;;;;;;3.14;100.00;99365.00;5044004;28;20039;-70
2024/03/26 03:01:44;;;;;;;17.83;4.75;;;;;;;3.09;100.00;99357.13;5041063;28;20029;-74
2024/03/26 03:04:10;;;;;;;16.85;4.80;;;;;;;3.03;100.00;99357.06;5044682;28;20033;-71
2024/03/26 03:06:35;;;;;;;18.85;4.95;;;;;;;3.03;100.00;99350.94;5043119;28;20078;-69
2024/03/26 03:09:00;;;;;;;19.23;5.30;;;;;;;3.02;100.00;99344.84;5043456;28;20029;-66
2024/03/26 03:11:26;;;;;;;19.25;5.30;;;;;;;3.03;100.00;99341.38;5044881;28;20419;-69
2024/03/26 03:13:51;;;;;;;19.05;4.97;;;;;;;3.02;100.00;99337.00;5042073;28;20047;-70
2024/03/26 03:16:17;;;;;;;17.95;4.90;;;;;;;3.00;100.00;99325.69;5045501;28;20037;-73
2024/03/26 03:18:43;;;;;;;18.48;5.00;;;;;;;3.02;100.00;99326.56;5042399;28;20036;-66
2024/03/26 03:21:08;;;;;;;18.98;5.15;;;;;;;3.01;100.00;99321.34;5044374;28;20025;-71
2024/03/26 03:23:33;;;;;;;19.52;4.80;;;;;;;3.00;100.00;99322.19;5043456;28;20051;-77
2024/03/26 03:25:58;;;;;;;16.75;4.80;;;;;;;2.99;100.00;99313.50;5042721;28;20061;-75
2024/03/26 03:28:24;;;;;;;18.77;5.07;;;;;;;3.00;100.00;99316.97;5043877;28;20075;-70
2024/03/26 03:30:49;;;;;;;19.55;5.10;;;;;;;2.96;100.00;99311.72;5041739;28;20109;-72
2024/03/26 03:33:15;;;;;;;17.55;5.03;;;;;;;2.92;100.00;99309.06;5044847;28;20065;-69
2024/03/26 03:35:40;;;;;;;17.90;4.85;;;;;;;2.91;100.00;99302.97;5042335;28;20043;-72
2024/03/26 03:38:06;;;;;;;17.42;5.07;;;;;;;2.91;100.00;99297.75;5043901;28;20025;-78
2024/03/26 03:40:33;;;;;;;17.55;5.00;;;;;;;2.92;100.00;99293.41;5043094;28;20473;-66
2024/03/26 03:42:58;;;;;;;19.63;5.25;;;;;;;2.86;100.00;99288.13;5042402;28;20033;-66
2024/03/26 03:45:24;;;;;;;17.02;5.18;;;;;;;2.85;100.00;99288.97;5044306;28;20476;-67
2024/03/26 03:47:49;;;;;;;17.80;4.93;;;;;;;2.81;100.00;99281.97;5039779;28;20079;-68
2024/03/26 03:50:15;;;;;;;17.58;4.95;;;;;;;2.77;100.00;99278.44;5044317;28;20500;-66
2024/03/26 03:52:40;;;;;;;18.17;4.90;;;;;;;2.76;100.00;99274.94;5041946;28;20037;-68
2024/03/26 03:55:06;;;;;;;19.30;5.10;;;;;;;2.74;100.00;99276.69;5043046;28;20033;-68
2024/03/26 03:57:31;;;;;;;18.67;5.20;;;;;;;2.76;100.00;99266.25;5043200;28;20438;-67
2024/03/26 03:59:56;;;;;;;16.55;4.95;;;;;;;2.74;100.00;99266.25;5040651;28;20519;-66
2024/03/26 04:02:22;;;;;;;20.27;5.00;;;;;;;2.80;100.00;99262.81;5044004;28;20353;-68
2024/03/26 04:04:47;;;;;;;20.25;5.25;;;;;;;2.82;100.00;99262.84;5041046;28;20073;-68
2024/03/26 04:07:12;;;;;;;20.05;5.07;;;;;;;2.86;100.00;99259.41;5044189;28;20055;-67
2024/03/26 04:09:38;;;;;;;17.65;5.10;;;;;;;2.84;100.00;99255.88;5042057;28;20029;-68
2024/03/26 04:12:04;;;;;;;18.95;5.28;;;;;;;2.82;100.00;99258.47;5042712;28;20395;-68
2024/03/26 04:14:29;;;;;;;19.10;5.25;;;;;;;2.83;100.00;99252.41;5042860;28;20472;-67
2024/03/26 04:16:55;;;;;;;17.92;5.22;;;;;;;2.82;100.00;99252.41;5041656;28;20112;-69
2024/03/26 04:19:21;;;;;;;18.42;5.43;;;;;;;2.81;100.00;99250.63;5044637;28;20476;-71
2024/03/26 04:21:47;;;;;;;17.60;5.30;;;;;;;2.83;100.00;99248.94;5036779;28;20025;-66
2024/03/26 04:24:12;;;;;;;18.23;5.22;;;;;;;2.83;100.00;99241.97;5043516;28;20498;-66
2024/03/26 04:26:38;;;;;;;17.88;5.50;;;;;;;2.81;100.00;99245.41;5041697;28;20057;-65
2024/03/26 04:29:03;;;;;;;17.70;5.18;;;;;;;2.77;100.00;99245.38;5042303;28;20030;-66
2024/03/26 04:31:28;;;;;;;18.65;5.43;;;;;;;2.75;100.00;99244.50;5043218;28;20426;-66
2024/03/26 04:33:54;;;;;;;18.80;5.53;;;;;;;2.77;100.00;99237.56;5041134;28;20029;-66
2024/03/26 04:36:19;;;;;;;19.20;5.60;;;;;;;2.69;100.00;99231.38;5044296;28;20033;-67
2024/03/26 04:38:44;;;;;;;18.25;5.30;;;;;;;2.69;100.00;99240.94;5042657;28;20029;-66
2024/03/26 04:41:10;;;;;;;17.98;5.38;;;;;;;2.67;100.00;99232.25;5046102;28;20098;-68
2024/03/26 04:43:35;;;;;;;17.38;5.25;;;;;;;2.61;100.00;99225.22;5045771;28;20029;-66
2024/03/26 04:46:00;;;;;;;17.50;5.10;;;;;;;2.61;100.00;99231.31;5045999;28;20108;-68
2024/03/26 04:48:26;;;;;;;19.20;5.32;;;;;;;2.60;100.00;99232.16;5046211;28;20483;-66
2024/03/26 04:50:51;;;;;;;17.48;5.28;;;;;;;2.56;100.00;99230.41;5044550;28;20460;-67
2024/03/26 04:53:17;;;;;;;18.50;5.20;;;;;;;2.53;100.00;99234.69;5047327;28;20472;-73
2024/03/26 04:55:42;;;;;;;18.08;5.10;;;;;;;2.51;100.00;99223.38;5045485;28;20116;-71
2024/03/26 04:58:07;;;;;;;18.90;5.43;;;;;;;2.44;100.00;99223.28;5047174;28;20030;-73
2024/03/26 05:00:33;;;;;;;18.23;5.60;;;;;;;2.41;100.00;99215.44;5046994;28;20017;-76
2024/03/26 05:03:00;;;;;;;19.13;5.07;;;;;;;2.42;100.00;99209.34;5045657;28;20034;-76
2024/03/26 05:05:25;;;;;;;16.58;4.90;;;;;;;2.39;100.00;99218.91;5047537;28;20025;-76
2024/03/26 05:07:51;;;;;;;20.85;5.20;;;;;;;2.44;100.00;99218.06;5045203;28;20030;-78
2024/03/26 05:10:17;;;;;;;18.13;5.28;;;;;;;2.49;100.00;99212.03;5044878;28;20038;-76
2024/03/26 05:12:43;;;;;;;18.13;5.30;;;;;;;2.44;100.00;99223.28;5047879;28;20545;-70
2024/03/26 05:15:08;;;;;;;18.00;5.18;;;;;;;2.44;100.00;99215.44;5045946;28;20028;-66
2024/03/26 05:17:34;;;;;;;17.77;5.03;;;;;;;2.41;100.00;99220.63;5045117;28;20881;-67
2024/03/26 05:19:59;;;;;;;19.67;5.60;;;;;;;2.38;100.00;99218.00;5028763;28;20044;-68
2024/03/26 05:22:25;;;;;;;18.13;5.20;;;;;;;2.44;100.00;99210.22;5045664;28;20507;-78
2024/03/26 05:24:51;;;;;;;19.08;5.65;;;;;;;2.52;100.00;99212.06;5048441;28;20029;-77
2024/03/26 05:27:16;;;;;;;19.77;5.45;;;;;;;2.54;100.00;99211.22;5041329;28;20045;-76
2024/03/26 05:29:42;;;;;;;19.17;5.40;;;;;;;2.61;100.00;99207.81;5047672;28;20205;-77
2024/03/26 05:32:07;;;;;;;18.48;5.57;;;;;;;2.65;100.00;99211.34;5046550;28;20033;-78
2024/03/26 05:34:33;;;;;;;17.13;5.15;;;;;;;2.66;100.00;99210.47;5047278;28;20113;-74
2024/03/26 05:36:59;;;;;;;17.98;5.32;;;;;;;2.69;100.00;99210.50;5046029;28;20029;-64
2024/03/26 05:39:24;;;;;;;17.90;5.30;;;;;;;2.73;100.00;99206.19;5044065;28;20079;-67
2024/03/26 05:41:50;;;;;;;17.70;5.07;;;;;;;2.86;100.00;99212.41;5045887;28;20430;-68
2024/03/26 05:44:16;;;;;;;21.17;8.98;;;;;;;2.94;100.00;99206.41;5043580;28;20035;-67
2024/03/26 05:46:42;;;;;;;20.35;8.02;;;;;;;2.94;100.00;99202.91;5046388;28;20024;-67
2024/03/26 05:49:07;;;;;;;19.08;6.03;;;;;;;2.95;100.00;99205.53;5044671;28;20072;-66
2024/03/26 05:51:32;;;;;;;17.80;5.22;;;;;;;2.94;100.00;99197.69;5044318;28;20092;-66
2024/03/26 05:53:58;;;;;;;17.23;5.10;;;;;;;2.95;100.00;99202.91;5044483;28;20025;-66
2024/03/26 05:56:23;;;;;;;19.25;6.05;;;;;;;2.97;100.00;99197.72;5043582;28;20049;-66
2024/03/26 05:58:48;;;;;;;19.15;5.55;;;;;;;2.99;100.00;99189.91;5045395;28;20222;-68
2024/03/26 06:01:14;;;;;;;19.30;5.25;;;;;;;3.08;100.00;99203.91;5043544;28;20083;-69
2024/03/26 06:03:39;;;;;;;18.15;5.68;;;;;;;3.16;100.00;99195.25;5044102;28;20057;-67
2024/03/26 06:06:05;;;;;;;18.17;4.93;;;;;;;3.26;100.00;99195.38;5044898;28;20383;-68
2024/03/26 06:08:31;;;;;;;17.77;5.03;;;;;;;3.35;100.00;99191.94;5044313;28;20376;-67
2024/03/26 06:10:56;;;;;;;18.15;5.30;;;;;;;3.43;100.00;99185.00;5045680;28;20028;-66
2024/03/26 06:13:22;;;;;;;18.67;5.80;;;;;;;3.51;100.00;99186.81;5041500;28;20389;-70
2024/03/26 06:15:47;;;;;;;17.42;5.28;;;;;;;3.59;100.00;99196.44;5046364;28;20543;-67
2024/03/26 06:18:13;;;;;;;17.10;5.25;;;;;;;3.60;100.00;99189.50;5043670;28;20026;-67
2024/03/26 06:20:38;;;;;;;19.02;5.47;;;;;;;3.65;100.00;99187.78;5044836;28;20472;-66
2024/03/26 06:23:04;;;;;;;17.42;5.10;;;;;;;3.69;100.00;99186.94;5044775;28;20123;-68
2024/03/26 06:25:29;;;;;;;17.42;5.07;;;;;;;3.76;100.00;99188.72;5042309;28;20040;-66
2024/03/26 06:27:55;;;;;;;18.20;5.20;;;;;;;3.85;100.00;99180.03;5045459;28;20045;-67
2024/03/26 06:30:20;;;;;;;18.73;5.28;;;;;;;3.97;100.00;99189.69;5042943;28;20372;-67
2024/03/26 06:32:45;;;;;;;18.60;5.30;;;;;;;4.04;100.00;99180.13;5045875;28;20472;-66
2024/03/26 06:35:11;;;;;;;18.48;5.20;;;;;;;4.11;100.00;99192.38;5043528;28;20033;-66
2024/03/26 06:37:39;;;;;;;18.17;5.40;;;;;;;4.20;100.00;99189.78;5044564;28;20477;-68
2024/03/26 06:40:05;;;;;;;18.20;5.40;;;;;;;4.26;100.00;99188.94;5044092;28;20128;-66
2024/03/26 06:42:31;;;;;;;16.60;4.93;;;;;;;4.31;100.00;99188.09;5043350;28;20528;-68
2024/03/26 06:44:56;;;;;;;17.60;5.13;;;;;;;4.39;100.00;99184.63;5045529;28;20124;-66
2024/03/26 06:47:21;;;;;;;17.10;5.22;;;;;;;4.44;100.00;99181.16;5042368;28;20026;-66
2024/03/26 06:49:47;;;;;;;18.50;5.32;;;;;;;4.50;100.00;99183.78;5045613;28;20388;-66
2024/03/26 06:52:12;;;;;;;18.48;5.38;;;;;;;4.59;100.00;99182.03;5041871;28;20040;-65
2024/03/26 06:54:39;;;;;;;18.40;5.60;;;;;;;4.63;100.00;99183.78;5044375;28;20424;-66
2024/03/26 06:57:04;;;;;;;17.33;5.40;;;;;;;4.69;100.00;99183.81;5043990;28;20399;-65
2024/03/26 06:59:29;;;;;;;18.08;5.10;;;;;;;4.78;100.00;99177.72;5042755;28;20033;-66
2024/03/26 07:01:55;;;;;;;18.92;5.20;;;;;;;4.84;100.00;99177.72;5044686;28;20041;-68
2024/03/26 07:04:20;;;;;;;18.13;5.38;;;;;;;4.91;100.00;99168.13;5042003;28;20029;-66
2024/03/26 07:06:45;;;;;;;18.02;5.47;;;;;;;4.96;100.00;99169.88;5045160;28;20430;-66
2024/03/26 07:09:11;;;;;;;18.88;5.53;;;;;;;5.04;100.00;99175.13;5043047;28;20376;-77
2024/03/26 07:11:37;;;;;;;18.48;5.43;;;;;;;5.10;100.00;99174.22;5044385;28;20469;-75
2024/03/26 07:14:02;;;;;;;17.80;5.40;;;;;;;5.15;100.00;99173.38;5044100;28;20029;-70
2024/03/26 07:16:28;;;;;;;17.67;5.50;;;;;;;5.24;100.00;99172.47;5043090;28;20017;-77
2024/03/26 07:18:53;;;;;;;17.52;5.30;;;;;;;5.32;100.00;99169.88;5045620;28;20429;-65
2024/03/26 07:21:19;;;;;;;18.00;5.28;;;;;;;5.38;100.00;99167.25;5042218;28;20041;-65
2024/03/26 07:23:44;;;;;;;15.85;5.13;;;;;;;5.45;100.00;99155.03;5045410;28;20411;-67
2024/03/26 07:26:09;;;;;;;18.23;5.25;;;;;;;5.52;100.00;99157.63;5043413;28;20499;-78
2024/03/26 07:28:35;;;;;;;19.25;5.30;;;;;;;5.60;100.00;99154.97;5043848;28;20040;-74
2024/03/26 07:31:00;;;;;;;18.92;5.35;;;;;;;5.67;100.00;99153.22;5044573;28;20033;-73
2024/03/26 07:33:26;;;;;;;17.52;5.18;;;;;;;5.69;100.00;99139.19;5042232;28;20037;-73
2024/03/26 07:35:51;;;;;;;19.38;5.50;;;;;;;5.79;100.00;99145.31;5045442;28;20025;-78
2024/03/26 07:38:17;;;;;;;17.70;5.38;;;;;;;5.89;100.00;99146.16;5041990;28;20435;-78
2024/03/26 07:40:43;;;;;;;19.42;5.40;;;;;;;5.96;100.00;99140.00;5043894;28;20029;-72
2024/03/26 07:43:09;;;;;;;17.38;5.22;;;;;;;6.01;100.00;99132.13;5042420;28;20438;-68
2024/03/26 07:45:34;;;;;;;17.42;5.40;;;;;;;6.07;100.00;99135.63;5042888;28;20029;-69
2024/03/26 07:47:59;;;;;;;17.25;5.18;;;;;;;6.14;100.00;99127.72;5043913;28;20027;-69
2024/03/26 07:50:25;;;;;;;18.02;5.20;;;;;;;6.20;100.00;99130.31;5041277;28;20450;-66
2024/03/26 07:52:50;;;;;;;19.40;5.28;;;;;;;6.27;100.00;99139.88;5044767;28;20083;-66
2024/03/26 07:55:16;;;;;;;18.95;5.13;;;;;;;6.31;100.00;99132.88;5041170;28;20071;-67
2024/03/26 07:57:42;;;;;;;18.70;5.50;;;;;;;6.34;100.00;99123.22;5043365;28;20040;-66
2024/03/26 08:00:10;;;;;;;18.50;5.53;;;;;;;6.39;100.00;99134.59;5042447;28;20022;-66
2024/03/26 08:02:41;;;;;;;18.73;5.50;;;;;;;6.43;100.00;99133.66;5041245;28;20128;-65
2024/03/26 08:05:06;;;;;;;18.55;5.25;;;;;;;6.49;100.00;99124.88;5042533;28;20064;-65
2024/03/26 08:07:32;;;;;;;18.70;5.28;;;;;;;6.53;100.00;99123.13;5044041;28;20461;-65
2024/03/26 08:09:58;;;;;;;20.55;5.70;;;;;;;6.56;100.00;99123.97;5041598;28;20029;-68
2024/03/26 08:12:23;;;;;;;18.83;5.57;;;;;;;6.60;100.00;99123.06;5042664;28;20398;-66
2024/03/26 08:14:49;;;;;;;17.67;5.45;;;;;;;6.60;100.00;99114.31;5035515;28;20037;-68
2024/03/26 08:17:14;;;;;;;18.90;5.55;;;;;;;6.63;100.00;99112.53;5042665;28;20041;-65
2024/03/26 08:19:40;;;;;;;17.50;5.40;;;;;;;6.69;100.00;99116.88;5042354;28;20040;-65
2024/03/26 08:22:06;;;;;;;17.05;5.28;;;;;;;6.74;100.00;99119.47;5042508;28;20048;-66
2024/03/26 08:24:31;;;;;;;18.88;5.40;;;;;;;6.78;100.00;99102.78;5042922;28;20029;-68
2024/03/26 08:26:56;;;;;;;18.15;5.43;;;;;;;6.81;100.00;99113.28;5039917;28;20129;-67
2024/03/26 08:29:22;;;;;;;18.92;5.28;;;;;;;6.88;100.00;99107.09;5043194;28;20152;-66
2024/03/26 08:31:47;;;;;;;16.98;5.25;;;;;;;6.91;100.00;99107.06;5039591;28;20041;-68
2024/03/26 08:34:12;;;;;;;17.00;5.13;;;;;;;6.99;100.00;99101.75;5043604;28;20100;-65
2024/03/26 08:36:37;;;;;;;18.40;5.57;;;;;;;7.05;100.00;99106.06;5041149;28;20036;-65
2024/03/26 08:39:03;;;;;;;18.45;5.60;;;;;;;7.08;100.00;99096.41;5041712;28;20040;-66
2024/03/26 08:41:28;;;;;;;19.10;5.60;;;;;;;7.12;100.00;99099.88;5043344;28;20048;-68
2024/03/26 08:43:54;;;;;;;16.75;5.35;;;;;;;7.19;100.00;99090.19;5040656;28;20049;-66
2024/03/26 08:46:20;;;;;;;17.27;5.20;;;;;;;7.25;100.00;99093.63;5043868;28;20112;-66
2024/03/26 08:48:46;;;;;;;17.80;5.43;;;;;;;7.37;100.00;99091.75;5041132;28;20455;-66
2024/03/26 08:51:12;;;;;;;17.42;5.00;;;;;;;7.45;100.00;99080.25;5042811;28;20032;-66
2024/03/26 08:53:37;;;;;;;17.55;5.15;;;;;;;7.59;100.00;99072.22;5042094;28;20411;-69
2024/03/26 08:56:03;;;;;;;17.38;5.35;;;;;;;7.73;100.00;99079.06;5041648;28;20053;-66
2024/03/26 08:58:29;;;;;;;17.67;5.10;;;;;;;7.82;100.00;99078.94;5041621;28;20369;-66
2024/03/26 09:00:54;;;;;;;17.15;4.85;;;;;;;7.93;100.00;99073.56;5040736;28;20025;-66
2024/03/26 09:03:19;;;;;;;19.20;4.95;;;;;;;7.96;100.00;99081.41;5043897;28;20493;-66
2024/03/26 09:05:45;;;;;;;18.67;5.25;;;;;;;8.08;100.00;99075.13;5040803;28;20392;-66
2024/03/26 09:08:10;;;;;;;18.17;5.10;;;;;;;8.19;100.00;99074.06;5042672;28;20025;-66
2024/03/26 09:10:35;;;;;;;16.85;5.22;;;;;;;8.21;100.00;99068.78;5042066;28;20029;-68
2024/03/26 09:13:01;;;;;;;16.85;5.00;;;;;;;8.16;100.00;99074.13;5041164;28;20040;-66
2024/03/26 09:15:26;;;;;;;17.05;5.00;;;;;;;8.16;100.00;99081.16;5043775;28;20036;-74
2024/03/26 09:17:53;;;;;;;16.70;4.88;;;;;;;8.14;100.00;99069.75;5040306;28;20059;-68
2024/03/26 09:20:18;;;;;;;17.30;5.13;;;;;;;8.15;100.00;99082.03;5043558;28;20476;-69
2024/03/26 09:22:45;;;;;;;16.88;4.78;;;;;;;8.22;100.00;99077.56;5041053;28;20056;-70
2024/03/26 09:25:10;;;;;;;16.67;5.00;;;;;;;8.16;100.00;99062.72;5042535;28;20029;-72
2024/03/26 09:27:35;;;;;;;15.68;4.50;;;;;;;8.19;100.00;99057.41;5044387;28;20385;-67
2024/03/26 09:30:02;;;;;;;17.77;4.97;;;;;;;8.25;100.00;99057.31;5045473;28;20034;-76
2024/03/26 09:32:27;;;;;;;17.90;5.10;;;;;;;8.33;100.00;99060.72;5047206;28;20037;-76
2024/03/26 09:34:53;;;;;;;18.55;5.00;;;;;;;8.37;100.00;99061.53;5043011;28;20087;-76
2024/03/26 09:37:19;;;;;;;18.25;4.90;;;;;;;8.32;100.00;99053.72;5048711;28;20021;-76
2024/03/26 09:39:46;;;;;;;16.10;4.85;;;;;;;8.36;100.00;99055.41;5045627;28;20033;-76
2024/03/26 09:42:11;;;;;;;16.63;4.85;;;;;;;8.48;100.00;99061.44;5045367;28;20029;-71
2024/03/26 09:44:39;;;;;;;17.27;4.78;;;;;;;8.52;100.00;99049.94;5045550;28;20107;-66
2024/03/26 09:47:06;;;;;;;18.63;4.82;;;;;;;8.59;100.00;99046.31;5045512;28;20872;-71
2024/03/26 09:49:34;;;;;;;17.15;4.68;;;;;;;8.72;100.00;99042.59;5044563;28;20116;-71
2024/03/26 09:52:01;;;;;;;17.60;4.75;;;;;;;8.75;100.00;99036.38;5046100;28;20527;-66
2024/03/26 09:54:27;;;;;;;16.58;4.68;;;;;;;8.89;100.00;99033.53;5043496;28;20354;-66
2024/03/26 09:56:54;;;;;;;19.02;5.10;;;;;;;9.05;100.00;99031.47;5045338;28;20020;-67
2024/03/26 09:59:19;;;;;;;17.48;4.90;;;;;;;9.12;100.00;99026.97;5041919;28;20175;-69
2024/03/26 10:01:46;;;;;;;17.40;4.70;;;;;;;9.10;100.00;99029.66;5044768;28;20124;-67
2024/03/26 10:04:12;;;;;;;16.23;4.63;;;;;;;9.15;100.00;99024.28;5044149;28;20043;-69
2024/03/26 10:06:37;;;;;;;16.73;4.60;;;;;;;9.16;100.00;99026.00;5044832;28;20477;-68
2024/03/26 10:09:03;;;;;;;17.85;4.82;;;;;;;9.21;100.00;99024.16;5045268;28;20033;-67
2024/03/26 10:11:28;;;;;;;16.55;4.53;;;;;;;9.15;100.00;99021.66;5043807;28;20144;-66
2024/03/26 10:13:55;;;;;;;16.73;4.60;;;;;;;9.22;100.00;99025.91;5046249;28;20025;-66
2024/03/26 10:16:20;;;;;;;17.95;5.00;;;;;;;9.20;100.00;99030.31;5038783;28;20514;-67
2024/03/26 10:18:47;;;;;;;17.13;4.60;;;;;;;9.30;100.00;99039.78;5045652;28;20025;-67
2024/03/26 10:21:12;;;;;;;17.55;4.80;;;;;;;9.29;100.00;99031.91;5043459;28;20484;-68
2024/03/26 10:23:38;;;;;;;16.95;4.78;;;;;;;9.43;100.00;99025.47;5044389;28;20037;-68
2024/03/26 10:26:03;;;;;;;15.43;4.50;;;;;;;9.55;100.00;99034.03;5043735;28;20017;-66
2024/03/26 10:28:29;;;;;;;15.98;4.68;;;;;;;9.59;100.00;99030.44;5042863;28;20058;-68
2024/03/26 10:30:54;;;;;;;16.33;4.55;;;;;;;9.56;100.00;99030.50;5045919;28;20063;-67
2024/03/26 10:33:20;;;;;;;16.70;4.88;;;;;;;9.50;100.00;99025.38;5041692;28;20120;-66
2024/03/26 10:35:54;;;;;;;16.27;4.70;;;;;;;9.49;100.00;99024.47;5044912;28;20025;-67
2024/03/26 10:38:21;;;;;;;17.52;4.90;;;;;;;9.59;100.00;99009.34;5042297;28;20039;-67
2024/03/26 10:41:05;;;;;;;15.80;4.65;;;;;;;9.87;100.00;99009.63;5045618;28;20021;-67
2024/03/26 10:43:31;;;;;;;18.42;4.70;;;;;;;10.01;100.00;99005.81;5040565;28;20030;-67
2024/03/26 10:45:57;;;;;;;16.58;5.00;;;;;;;10.14;100.00;99004.63;5045793;28;20033;-66
2024/03/26 10:48:23;;;;;;;15.43;4.55;;;;;;;10.22;100.00;99000.03;5041102;28;20384;-70
2024/03/26 10:50:49;;;;;;;17.52;4.88;;;;;;;10.27;100.00;98994.66;5044461;28;20044;-69
2024/03/26 10:53:16;;;;;;;15.57;4.90;;;;;;;10.23;100.00;98990.34;5043118;28;20075;-68
2024/03/26 10:55:43;;;;;;;16.98;4.90;;;;;;;10.51;100.00;98984.41;5044544;28;20029;-71
2024/03/26 10:58:08;;;;;;;16.90;4.88;;;;;;;10.61;100.00;98983.28;5044138;28;20059;-67
2024/03/26 11:00:39;;;;;;;15.85;4.80;;;;;;;10.80;100.00;98989.84;5043361;28;20029;-67
2024/03/26 11:03:06;;;;;;;18.40;5.22;;;;;;;11.05;100.00;98975.94;5044069;28;20502;-70
2024/03/26 11:05:31;;;;;;;18.20;4.93;;;;;;;11.19;100.00;98972.94;5043011;28;20484;-67
2024/03/26 11:07:57;;;;;;;16.65;4.90;;;;;;;11.27;100.00;98972.69;5044509;28;20112;-73
2024/03/26 11:10:22;;;;;;;16.95;4.90;;;;;;;11.36;100.00;98969.81;5045317;28;20476;-73
2024/03/26 11:12:50;;;;;;;17.73;4.95;;;;;;;11.41;100.00;98969.69;5042131;28;20469;-72
2024/03/26 11:15:15;;;;;;;17.15;4.97;;;;;;;11.48;100.00;98964.16;5045427;28;20045;-73
2024/03/26 11:17:57;;;;;;;17.10;5.03;;;;;;;11.43;100.00;98963.44;5042605;28;20032;-70